EGHH/BOH METAR and TAF weather

Enter ICAO airport designator
Station Type Date Time Source
EGHH METAR 2018/12/10 17:20 UTC NOAA

EGHH 101720Z 27005KT 9999 FEW032 05/03 Q1029


Station Type Date Time Source
EGHH Decoded METAR 2018/12/10 17:20 UTC NOAA

Bournemouth Airport, United Kingdom (EGHH) 50-47N 001-50W 0M
Dec 10, 2018 - 12:20 PM EST / 2018.12.10 1720 UTC
Wind: from the W (270 degrees) at 6 MPH (5 KT):0
Visibility: greater than 7 mile(s):0
Sky conditions: mostly clear
Temperature: 41 F (5 C)
Dew Point: 37 F (3 C)
Relative Humidity: 86%
Pressure (altimeter): 30.39 in. Hg (1029 hPa)
ob: EGHH 101720Z 27005KT 9999 FEW032 05/03 Q1029
cycle: 17

Station Type Date Time Source
EGHH TAF 2013/12/01 21:21 UTC NOAA

TAF TAF EGHH 010016Z 3021/0106 CNL


Example: see airport list